createdAt,value
2022-09-20T00:01:23.109Z,2.00
2022-09-20T00:03:53.639Z,2.08
2022-09-20T00:06:23.202Z,2.30
2022-09-20T00:08:50.622Z,1.70
2022-09-20T00:11:23.250Z,1.90
2022-09-20T00:13:53.424Z,1.85
2022-09-20T00:16:41.417Z,1.98
2022-09-20T00:19:10.811Z,2.00
2022-09-20T00:21:37.944Z,1.70
2022-09-20T00:24:06.095Z,2.05
2022-09-20T00:26:33.403Z,2.30
2022-09-20T00:32:20.100Z,1.80
2022-09-20T00:35:05.408Z,1.80
2022-09-20T00:37:32.381Z,1.90
2022-09-20T00:39:59.266Z,1.58
2022-09-20T00:42:31.119Z,1.73
2022-09-20T00:45:03.566Z,2.28
2022-09-20T00:47:44.732Z,1.80
2022-09-20T00:50:30.295Z,2.10
2022-09-20T00:53:05.977Z,1.73
2022-09-20T00:55:35.087Z,1.92
2022-09-20T00:58:02.301Z,1.73
2022-09-20T01:00:29.648Z,1.90
2022-09-20T01:03:03.508Z,1.90
2022-09-20T01:07:57.553Z,2.03
2022-09-20T01:10:24.559Z,2.13
2022-09-20T01:12:53.722Z,1.90
2022-09-20T01:15:23.313Z,1.52
2022-09-20T01:17:53.700Z,1.70
2022-09-20T01:20:38.950Z,1.75
2022-09-20T01:23:24.483Z,2.20
2022-09-20T01:26:10.204Z,1.58
2022-09-20T01:28:39.110Z,2.05
2022-09-20T01:31:33.485Z,1.70
2022-09-20T01:34:21.527Z,1.60
2022-09-20T01:37:02.669Z,1.77
2022-09-20T01:40:02.877Z,1.90
2022-09-20T01:42:36.592Z,1.50
2022-09-20T01:45:09.855Z,2.03
2022-09-20T01:47:48.795Z,1.70
2022-09-20T01:50:30.261Z,1.73
2022-09-20T01:53:21.485Z,1.75
2022-09-20T01:56:07.056Z,1.58
2022-09-20T01:59:22.132Z,1.83
2022-09-20T02:01:53.891Z,1.90
2022-09-20T02:04:42.696Z,1.50
2022-09-20T02:07:28.445Z,1.70
2022-09-20T02:10:32.504Z,1.60
2022-09-20T02:13:04.596Z,1.57
2022-09-20T02:15:59.123Z,1.60
2022-09-20T02:21:05.612Z,1.80
2022-09-20T02:23:41.952Z,1.50
2022-09-20T02:26:28.677Z,1.67
2022-09-20T02:29:10.360Z,1.70
2022-09-20T02:31:57.526Z,1.73
2022-09-20T02:34:50.106Z,1.38
2022-09-20T02:37:51.014Z,1.40
2022-09-20T02:41:00.784Z,1.77
2022-09-20T02:43:44.853Z,1.33
2022-09-20T02:46:42.060Z,1.70
2022-09-20T02:49:50.739Z,1.70
2022-09-20T02:52:49.159Z,1.30
2022-09-20T02:55:42.158Z,1.40
2022-09-20T02:58:20.822Z,1.50
2022-09-20T03:01:07.644Z,1.50
2022-09-20T03:03:54.694Z,1.55
2022-09-20T03:06:43.759Z,1.73
2022-09-20T03:09:34.039Z,1.83
2022-09-20T03:12:22.457Z,1.88
2022-09-20T03:15:26.827Z,1.58
2022-09-20T03:18:16.139Z,1.70
2022-09-20T03:20:45.807Z,1.73
2022-09-20T03:23:34.043Z,1.80
2022-09-20T03:26:27.952Z,1.60
2022-09-20T03:29:08.743Z,1.80
2022-09-20T03:32:04.102Z,1.60
2022-09-20T03:34:37.058Z,1.63
2022-09-20T03:37:17.115Z,1.67
2022-09-20T03:40:17.757Z,1.70
2022-09-20T03:42:51.519Z,2.45
2022-09-20T03:45:54.264Z,1.52
2022-09-20T03:48:46.932Z,1.83
2022-09-20T03:51:14.087Z,1.73
2022-09-20T03:53:51.191Z,1.70
2022-09-20T03:56:29.456Z,1.80
2022-09-20T03:59:29.796Z,2.00
2022-09-20T04:02:33.345Z,2.10
2022-09-20T04:05:09.836Z,1.83
2022-09-20T04:07:59.768Z,1.92
2022-09-20T04:10:53.225Z,1.70
2022-09-20T04:13:44.520Z,1.80
2022-09-20T04:16:37.865Z,1.73
2022-09-20T04:19:21.809Z,1.73
2022-09-20T04:22:02.296Z,1.65
2022-09-20T04:24:43.076Z,1.85
2022-09-20T04:27:20.420Z,2.10
2022-09-20T04:29:51.725Z,2.17
2022-09-20T04:32:42.406Z,1.95
2022-09-20T04:35:54.476Z,2.30
2022-09-20T04:38:22.114Z,1.83
2022-09-20T04:40:57.840Z,2.03
2022-09-20T04:43:36.513Z,2.05
2022-09-20T04:46:29.172Z,2.05
2022-09-20T04:49:15.440Z,1.73
2022-09-20T04:52:11.477Z,1.65
2022-09-20T04:54:59.992Z,2.17
2022-09-20T04:58:00.571Z,2.08
2022-09-20T05:00:57.825Z,1.92
2022-09-20T05:03:27.488Z,2.00
2022-09-20T05:06:16.069Z,2.05
2022-09-20T05:09:08.247Z,2.20
2022-09-20T05:12:05.770Z,2.47
2022-09-20T05:14:53.455Z,2.10
2022-09-20T05:17:34.500Z,2.22
2022-09-20T05:20:13.470Z,1.85
2022-09-20T05:23:07.948Z,2.40
2022-09-20T05:26:03.480Z,2.15
2022-09-20T05:29:03.943Z,2.15
2022-09-20T05:31:51.765Z,1.70
2022-09-20T05:34:42.366Z,2.30
2022-09-20T05:37:21.738Z,2.55
2022-09-20T05:40:22.679Z,2.08
2022-09-20T05:42:55.764Z,2.40
2022-09-20T05:46:04.714Z,2.40
2022-09-20T05:48:47.967Z,2.22
2022-09-20T05:51:45.791Z,2.05
2022-09-20T05:54:33.827Z,2.13
2022-09-20T05:57:25.125Z,2.35
2022-09-20T06:00:07.074Z,2.35
2022-09-20T06:02:48.462Z,2.42
2022-09-20T06:05:29.541Z,2.78
2022-09-20T06:08:20.643Z,2.55
2022-09-20T06:11:01.937Z,2.60
2022-09-20T06:14:01.136Z,2.70
2022-09-20T06:17:04.709Z,2.80
2022-09-20T06:19:37.357Z,3.05
2022-09-20T06:22:28.474Z,3.22
2022-09-20T06:25:07.510Z,3.70
2022-09-20T06:27:53.869Z,2.67
2022-09-20T06:30:31.484Z,3.30
2022-09-20T06:33:06.383Z,3.00
2022-09-20T06:36:30.417Z,3.03
2022-09-20T06:39:34.952Z,2.90
2022-09-20T06:42:02.263Z,3.30
2022-09-20T06:44:29.477Z,3.45
2022-09-20T06:46:56.424Z,3.08
2022-09-20T06:49:24.307Z,3.03
2022-09-20T06:51:52.539Z,3.60
2022-09-20T06:54:21.933Z,3.45
2022-09-20T06:56:50.608Z,3.28
2022-09-20T06:59:17.509Z,3.40
2022-09-20T07:01:45.120Z,3.80
2022-09-20T07:04:12.107Z,3.90
2022-09-20T07:06:39.162Z,4.15
2022-09-20T07:09:06.584Z,4.40
2022-09-20T07:11:34.210Z,4.78
2022-09-20T07:14:01.756Z,4.82
2022-09-20T07:16:29.043Z,5.05
2022-09-20T07:18:56.901Z,5.10
2022-09-20T07:21:24.357Z,4.78
2022-09-20T07:23:51.626Z,6.38
2022-09-20T07:26:25.851Z,5.35
2022-09-20T07:28:53.744Z,6.30
2022-09-20T07:31:22.956Z,6.13
2022-09-20T07:33:50.058Z,6.47
2022-09-20T07:36:17.288Z,5.95
2022-09-20T07:38:48.652Z,7.30
2022-09-20T07:41:15.604Z,7.03
2022-09-20T07:43:42.514Z,7.35
2022-09-20T07:46:12.134Z,7.38
2022-09-20T07:48:39.647Z,6.60
2022-09-20T07:51:12.811Z,6.10
2022-09-20T07:53:40.813Z,7.22
2022-09-20T07:56:15.993Z,6.47
2022-09-20T07:58:48.671Z,6.95
2022-09-20T08:01:19.958Z,6.40
2022-09-20T08:03:47.127Z,6.63
2022-09-20T08:06:18.512Z,7.13
2022-09-20T08:08:45.529Z,6.75
2022-09-20T08:11:15.515Z,5.15
2022-09-20T08:16:42.655Z,4.97
2022-09-20T08:19:23.350Z,5.75
2022-09-20T08:21:52.649Z,3.60
2022-09-20T08:24:19.689Z,3.63
2022-09-20T08:26:46.810Z,3.28
2022-09-20T08:29:15.347Z,2.90
2022-09-20T08:31:42.834Z,2.80
2022-09-20T08:34:12.756Z,2.45
2022-09-20T08:36:42.456Z,2.65
2022-09-20T08:41:58.975Z,2.50
2022-09-20T08:44:58.565Z,2.20
2022-09-20T08:47:29.794Z,1.90
2022-09-20T08:49:57.947Z,1.92
2022-09-20T08:52:37.654Z,2.60
2022-09-20T08:55:18.009Z,1.75
2022-09-20T08:57:49.299Z,1.95
2022-09-20T09:00:22.448Z,2.00
2022-09-20T09:02:54.199Z,1.60
2022-09-20T09:05:44.330Z,1.70
2022-09-20T09:08:16.651Z,1.40
2022-09-20T09:10:53.149Z,1.45
2022-09-20T09:13:42.452Z,1.83
2022-09-20T09:16:22.646Z,1.73
2022-09-20T09:18:52.187Z,1.50
2022-09-20T09:21:29.026Z,1.40
2022-09-20T09:24:09.469Z,1.60
2022-09-20T09:26:43.357Z,1.17
2022-09-20T09:31:51.845Z,1.10
2022-09-20T09:34:33.501Z,1.50
2022-09-20T09:37:00.521Z,1.02
2022-09-20T09:39:38.188Z,0.88
2022-09-20T09:42:28.834Z,1.08
2022-09-20T09:45:24.140Z,1.15
2022-09-20T09:47:51.061Z,0.90
2022-09-20T09:50:34.768Z,1.35
2022-09-20T09:53:11.487Z,1.10
2022-09-20T09:56:14.258Z,0.80
2022-09-20T09:59:21.746Z,0.80
2022-09-20T10:02:20.417Z,0.90
2022-09-20T10:04:59.499Z,1.00
2022-09-20T10:07:38.191Z,0.90
2022-09-20T10:10:21.193Z,0.85
2022-09-20T10:12:52.831Z,0.88
2022-09-20T10:15:30.929Z,1.10
2022-09-20T10:18:42.641Z,0.95
2022-09-20T10:21:23.189Z,0.75
2022-09-20T10:24:22.028Z,1.00
2022-09-20T10:26:51.819Z,1.08
2022-09-20T10:29:43.197Z,1.15
2022-09-20T10:32:33.061Z,1.10
2022-09-20T10:35:27.735Z,1.42
2022-09-20T10:38:14.685Z,1.00
2022-09-20T10:41:06.062Z,0.80
2022-09-20T10:44:09.691Z,1.25
2022-09-20T10:47:01.030Z,0.98
2022-09-20T10:49:34.787Z,1.40
2022-09-20T10:52:36.235Z,1.00
2022-09-20T10:55:41.290Z,1.00
2022-09-20T10:58:43.798Z,1.10
2022-09-20T11:01:49.587Z,1.15
2022-09-20T11:04:35.254Z,1.00
2022-09-20T11:07:32.776Z,0.90
2022-09-20T11:10:15.048Z,1.30
2022-09-20T11:12:49.121Z,1.00
2022-09-20T11:15:38.603Z,1.13
2022-09-20T11:18:13.892Z,0.85
2022-09-20T11:20:47.381Z,0.90
2022-09-20T11:23:21.091Z,1.10
2022-09-20T11:26:21.244Z,1.08
2022-09-20T11:28:56.027Z,1.10
2022-09-20T11:31:36.360Z,0.90
2022-09-20T11:34:32.887Z,1.10
2022-09-20T11:37:03.267Z,1.20
2022-09-20T11:39:54.621Z,1.05
2022-09-20T11:42:26.513Z,1.02
2022-09-20T11:44:54.734Z,1.15
2022-09-20T11:47:53.312Z,1.38
2022-09-20T11:50:45.173Z,1.10
2022-09-20T11:53:32.165Z,1.00
2022-09-20T11:56:18.722Z,1.30
2022-09-20T11:58:59.868Z,1.35
2022-09-20T12:01:35.663Z,1.10
2022-09-20T12:07:10.336Z,1.08
2022-09-20T12:09:42.526Z,1.02
2022-09-20T12:12:30.635Z,1.20
2022-09-20T12:15:00.428Z,1.15
2022-09-20T12:17:46.109Z,0.95
2022-09-20T12:20:44.911Z,0.95
2022-09-20T12:23:42.995Z,1.30
2022-09-20T12:26:37.029Z,1.10
2022-09-20T12:29:26.717Z,0.98
2022-09-20T12:31:57.115Z,1.08
2022-09-20T12:34:26.790Z,0.90
2022-09-20T12:36:53.634Z,1.00
2022-09-20T12:39:29.909Z,1.10
2022-09-20T12:42:11.476Z,0.98
2022-09-20T12:44:49.228Z,1.00
2022-09-20T12:47:23.437Z,1.00
2022-09-20T12:50:11.337Z,1.20
2022-09-20T12:53:03.870Z,1.20
2022-09-20T12:55:43.720Z,1.40
2022-09-20T12:58:14.417Z,1.10
2022-09-20T13:00:47.547Z,0.93
2022-09-20T13:03:34.888Z,1.00
2022-09-20T13:06:14.822Z,1.02
2022-09-20T13:08:49.706Z,0.90
2022-09-20T13:11:52.537Z,1.10
2022-09-20T13:14:31.421Z,0.95
2022-09-20T13:17:12.291Z,1.02
2022-09-20T13:19:44.351Z,0.90
2022-09-20T13:22:34.609Z,0.90
2022-09-20T13:25:05.637Z,0.73
2022-09-20T13:27:39.660Z,0.95
2022-09-20T13:30:22.095Z,0.80
2022-09-20T13:32:51.543Z,0.80
2022-09-20T13:35:33.044Z,0.90
2022-09-20T13:38:11.493Z,1.00
2022-09-20T13:40:43.726Z,1.00
2022-09-20T13:43:32.629Z,1.02
2022-09-20T13:46:07.486Z,0.80
2022-09-20T13:48:34.993Z,0.90
2022-09-20T13:51:02.457Z,0.90
2022-09-20T13:53:41.400Z,0.70
2022-09-20T13:56:30.032Z,0.90
2022-09-20T13:59:00.945Z,0.90
2022-09-20T14:01:35.788Z,0.70
2022-09-20T14:04:15.193Z,0.82
2022-09-20T14:06:42.798Z,0.77
2022-09-20T14:09:28.769Z,0.95
2022-09-20T14:11:58.616Z,0.75
2022-09-20T14:14:26.693Z,0.70
2022-09-20T14:16:56.447Z,0.93
2022-09-20T14:19:32.047Z,0.80
2022-09-20T14:22:06.273Z,1.00
2022-09-20T14:24:35.728Z,0.80
2022-09-20T14:27:19.121Z,0.90
2022-09-20T14:29:51.044Z,1.08
2022-09-20T14:32:24.752Z,0.80
